createdAt,value
2023-04-21T00:00:40.519Z,15.77
2023-04-21T00:03:06.916Z,14.57
2023-04-21T00:05:34.059Z,14.43
2023-04-21T00:08:00.447Z,15.02
2023-04-21T00:10:26.665Z,14.95
2023-04-21T00:12:52.854Z,15.25
2023-04-21T00:15:19.069Z,16.17
2023-04-21T00:17:45.420Z,16.50
2023-04-21T00:20:12.084Z,15.25
2023-04-21T00:22:38.290Z,16.33
2023-04-21T00:25:04.760Z,15.88
2023-04-21T00:27:31.027Z,16.40
2023-04-21T00:29:57.237Z,15.75
2023-04-21T00:32:23.509Z,15.40
2023-04-21T00:34:49.779Z,15.00
2023-04-21T00:37:16.055Z,15.55
2023-04-21T00:39:42.255Z,16.02
2023-04-21T00:42:08.447Z,15.93
2023-04-21T00:44:34.667Z,16.02
2023-04-21T00:47:00.993Z,16.80
2023-04-21T00:49:27.535Z,16.50
2023-04-21T00:51:54.524Z,16.60
2023-04-21T00:54:23.813Z,16.02
2023-04-21T00:56:50.057Z,17.30
2023-04-21T00:59:16.489Z,15.98
2023-04-21T01:01:42.836Z,17.92
2023-04-21T01:04:10.389Z,17.42
2023-04-21T01:06:37.032Z,16.98
2023-04-21T01:09:04.812Z,17.85
2023-04-21T01:11:32.026Z,17.83
2023-04-21T01:13:58.498Z,16.67
2023-04-21T01:16:24.893Z,17.92
2023-04-21T01:18:53.249Z,17.50
2023-04-21T01:21:21.230Z,18.33
2023-04-21T01:23:47.582Z,17.75
2023-04-21T01:26:13.769Z,16.80
2023-04-21T01:28:40.185Z,18.50
2023-04-21T01:31:06.459Z,16.58
2023-04-21T01:33:32.669Z,17.55
2023-04-21T01:36:00.966Z,17.85
2023-04-21T01:38:27.449Z,15.77
2023-04-21T01:40:54.107Z,17.42
2023-04-21T01:43:22.207Z,17.98
2023-04-21T01:45:48.501Z,18.15
2023-04-21T01:48:14.732Z,17.88
2023-04-21T01:50:40.985Z,18.40
2023-04-21T01:53:07.227Z,17.20
2023-04-21T01:55:33.504Z,18.38
2023-04-21T01:57:59.961Z,16.73
2023-04-21T02:00:26.648Z,18.10
2023-04-21T02:02:53.266Z,18.25
2023-04-21T02:05:19.609Z,19.08
2023-04-21T02:07:45.868Z,17.48
2023-04-21T02:10:12.425Z,18.30
2023-04-21T02:12:38.710Z,18.65
2023-04-21T02:15:05.351Z,18.70
2023-04-21T02:17:31.691Z,17.42
2023-04-21T02:19:57.994Z,18.90
2023-04-21T02:22:24.226Z,18.83
2023-04-21T02:24:50.721Z,17.90
2023-04-21T02:27:16.945Z,19.33
2023-04-21T02:29:43.150Z,18.02
2023-04-21T02:32:22.259Z,18.48
2023-04-21T02:34:51.552Z,19.30
2023-04-21T02:37:17.783Z,19.50
2023-04-21T02:39:44.753Z,18.15
2023-04-21T02:42:11.344Z,21.15
2023-04-21T02:44:38.248Z,19.90
2023-04-21T02:47:04.493Z,21.20
2023-04-21T02:49:31.089Z,19.05
2023-04-21T02:51:58.020Z,19.83
2023-04-21T02:54:24.259Z,18.02
2023-04-21T02:56:50.451Z,19.35
2023-04-21T02:59:16.862Z,18.55
2023-04-21T03:01:43.259Z,19.02
2023-04-21T03:04:09.546Z,20.23
2023-04-21T03:06:35.763Z,18.48
2023-04-21T03:09:01.969Z,20.70
2023-04-21T03:11:28.161Z,16.92
2023-04-21T03:13:54.375Z,19.77
2023-04-21T03:16:20.633Z,18.92
2023-04-21T03:18:46.893Z,18.40
2023-04-21T03:21:13.079Z,17.60
2023-04-21T03:23:39.368Z,19.27
2023-04-21T03:26:08.727Z,18.88
2023-04-21T03:28:35.032Z,19.98
2023-04-21T03:31:01.229Z,18.30
2023-04-21T03:33:27.482Z,20.88
2023-04-21T03:35:53.690Z,20.08
2023-04-21T03:38:19.905Z,21.90
2023-04-21T03:40:46.097Z,21.45
2023-04-21T03:43:12.300Z,21.50
2023-04-21T03:45:38.639Z,22.20
2023-04-21T03:48:05.100Z,19.25
2023-04-21T03:50:31.359Z,22.23
2023-04-21T03:52:57.618Z,21.25
2023-04-21T03:55:23.812Z,23.63
2023-04-21T03:57:50.155Z,22.92
2023-04-21T04:00:16.762Z,22.25
2023-04-21T04:02:43.785Z,19.20
2023-04-21T04:05:10.222Z,21.23
2023-04-21T04:07:36.470Z,20.08
2023-04-21T04:10:02.808Z,21.63
2023-04-21T04:12:28.986Z,19.63
2023-04-21T04:14:55.203Z,20.02
2023-04-21T04:17:21.446Z,20.90
2023-04-21T04:19:47.690Z,19.38
2023-04-21T04:22:13.868Z,21.17
2023-04-21T04:24:40.086Z,21.17
2023-04-21T04:27:06.911Z,19.20
2023-04-21T04:29:33.131Z,20.40
2023-04-21T04:32:01.533Z,21.25
2023-04-21T04:34:27.747Z,21.95
2023-04-21T04:36:53.975Z,22.08
2023-04-21T04:39:22.062Z,22.27
2023-04-21T04:41:48.619Z,22.23
2023-04-21T04:44:16.174Z,22.45
2023-04-21T04:46:42.837Z,21.63
2023-04-21T04:49:09.092Z,22.83
2023-04-21T04:51:35.370Z,22.00
2023-04-21T04:54:01.920Z,22.85
2023-04-21T04:56:30.311Z,21.88
2023-04-21T04:58:56.770Z,23.08
2023-04-21T05:01:29.146Z,22.85
2023-04-21T05:03:55.514Z,21.77
2023-04-21T05:06:22.054Z,21.30
2023-04-21T05:08:48.489Z,20.35
2023-04-21T05:11:14.686Z,22.13
2023-04-21T05:13:40.947Z,21.10
2023-04-21T05:16:07.484Z,21.83
2023-04-21T05:18:33.707Z,21.88
2023-04-21T05:20:59.909Z,21.40
2023-04-21T05:23:26.412Z,22.45
2023-04-21T05:25:52.712Z,22.15
2023-04-21T05:28:18.921Z,22.38
2023-04-21T05:30:45.243Z,21.30
2023-04-21T05:33:11.537Z,21.15
2023-04-21T05:35:38.186Z,19.42
2023-04-21T05:38:04.562Z,20.90
2023-04-21T05:40:30.927Z,19.55
2023-04-21T05:42:57.146Z,21.63
2023-04-21T05:45:23.432Z,23.98
2023-04-21T05:47:49.711Z,23.25
2023-04-21T05:50:17.005Z,23.05
2023-04-21T05:52:43.254Z,22.55
2023-04-21T05:55:09.484Z,21.65
2023-04-21T05:57:35.895Z,23.40
2023-04-21T06:00:02.178Z,24.77
2023-04-21T06:02:28.472Z,23.88
2023-04-21T06:04:54.941Z,23.00
2023-04-21T06:07:21.386Z,21.98
2023-04-21T06:09:51.140Z,24.75
2023-04-21T06:12:17.331Z,23.90
2023-04-21T06:14:43.549Z,24.77
2023-04-21T06:17:09.732Z,24.42
2023-04-21T06:19:39.796Z,25.27
2023-04-21T06:22:07.045Z,25.50
2023-04-21T06:24:33.347Z,24.83
2023-04-21T06:26:59.556Z,23.92
2023-04-21T06:29:25.773Z,23.23
2023-04-21T06:31:52.040Z,22.60
2023-04-21T06:34:20.155Z,22.33
2023-04-21T06:36:46.577Z,21.50
2023-04-21T06:39:12.784Z,22.58
2023-04-21T06:41:39.077Z,21.63
2023-04-21T06:44:05.422Z,20.73
2023-04-21T06:46:31.779Z,22.23
2023-04-21T06:48:58.023Z,21.85
2023-04-21T06:51:24.221Z,22.95
2023-04-21T06:53:50.490Z,22.55
2023-04-21T06:56:16.700Z,22.20
2023-04-21T06:58:42.906Z,20.40
2023-04-21T07:01:09.198Z,20.15
2023-04-21T07:03:35.509Z,21.45
2023-04-21T07:06:01.781Z,19.70
2023-04-21T07:08:28.014Z,20.77
2023-04-21T07:10:54.209Z,19.52
2023-04-21T07:13:20.529Z,18.92
2023-04-21T07:15:46.782Z,18.00
2023-04-21T07:18:13.002Z,17.58
2023-04-21T07:20:39.337Z,16.75
2023-04-21T07:23:05.597Z,16.95
2023-04-21T07:25:31.810Z,17.23
2023-04-21T07:27:58.104Z,15.38
2023-04-21T07:30:24.361Z,14.85
2023-04-21T07:32:50.685Z,15.20
2023-04-21T07:35:17.019Z,15.30
2023-04-21T07:37:43.559Z,14.82
2023-04-21T07:40:11.054Z,13.95
2023-04-21T07:42:37.374Z,15.10
2023-04-21T07:45:04.351Z,15.32
2023-04-21T07:47:31.294Z,15.23
2023-04-21T07:49:57.530Z,14.35
2023-04-21T07:52:23.782Z,14.85
2023-04-21T07:54:50.570Z,16.40
2023-04-21T07:57:16.837Z,14.93
2023-04-21T07:59:43.277Z,16.88
2023-04-21T08:02:09.617Z,14.93
2023-04-21T08:04:35.922Z,15.25
2023-04-21T08:07:02.939Z,16.70
2023-04-21T08:09:29.276Z,17.23
2023-04-21T08:11:57.034Z,17.77
2023-04-21T08:14:23.508Z,15.93
2023-04-21T08:16:49.842Z,16.38
2023-04-21T08:19:16.143Z,16.25
2023-04-21T08:21:42.329Z,13.98
2023-04-21T08:24:08.561Z,16.45
2023-04-21T08:26:34.997Z,15.93
2023-04-21T08:29:03.514Z,15.85
2023-04-21T08:31:30.824Z,15.98
2023-04-21T08:34:01.921Z,16.38
2023-04-21T08:36:30.166Z,15.65
2023-04-21T08:38:57.102Z,15.15
2023-04-21T08:41:24.350Z,16.42
2023-04-21T08:43:50.623Z,14.45
2023-04-21T08:46:17.029Z,15.57
2023-04-21T08:48:43.334Z,16.40
2023-04-21T08:51:09.916Z,16.05
2023-04-21T08:53:37.067Z,17.88
2023-04-21T08:58:36.034Z,15.52
2023-04-21T09:01:02.252Z,15.18
2023-04-21T09:03:28.849Z,16.70
2023-04-21T09:06:01.885Z,17.08
2023-04-21T09:08:30.138Z,15.68
2023-04-21T09:10:56.926Z,14.77
2023-04-21T09:13:29.214Z,14.90
2023-04-21T09:15:55.538Z,14.85
2023-04-21T09:18:23.440Z,14.48
2023-04-21T09:20:51.388Z,15.93
2023-04-21T09:23:17.733Z,15.30
2023-04-21T09:25:45.422Z,14.73
2023-04-21T09:28:13.042Z,15.90
2023-04-21T09:30:40.176Z,15.63
2023-04-21T09:33:16.665Z,14.10
2023-04-21T09:35:52.374Z,14.55
2023-04-21T09:38:22.429Z,14.98
2023-04-21T09:40:58.186Z,14.00
2023-04-21T09:43:24.414Z,14.00
2023-04-21T09:45:50.901Z,12.93
2023-04-21T09:48:17.727Z,13.00
2023-04-21T09:53:17.001Z,13.05
2023-04-21T09:55:46.452Z,12.27
2023-04-21T09:58:13.195Z,14.00
2023-04-21T10:00:39.796Z,12.93
2023-04-21T10:03:10.444Z,14.30
2023-04-21T10:05:39.473Z,13.60
2023-04-21T10:08:11.185Z,16.55
2023-04-21T10:10:37.386Z,15.95
2023-04-21T10:13:04.151Z,14.95
2023-04-21T10:15:34.312Z,14.15
2023-04-21T10:18:15.966Z,14.23
2023-04-21T10:23:08.331Z,13.07
2023-04-21T10:25:34.541Z,12.30
2023-04-21T10:28:00.818Z,13.15
2023-04-21T10:30:27.406Z,13.35
2023-04-21T10:33:03.237Z,12.07
2023-04-21T10:35:49.497Z,12.90
2023-04-21T10:38:33.534Z,12.85
2023-04-21T10:41:26.248Z,12.98
2023-04-21T10:43:52.460Z,13.02
2023-04-21T10:46:35.388Z,11.43
2023-04-21T10:49:08.692Z,11.90
2023-04-21T10:51:53.518Z,13.40
2023-04-21T10:54:21.804Z,11.95
2023-04-21T10:56:49.462Z,11.18
2023-04-21T10:59:16.260Z,10.68
2023-04-21T11:01:42.735Z,10.63
2023-04-21T11:04:15.913Z,10.73
2023-04-21T11:06:42.561Z,10.98
2023-04-21T11:09:09.298Z,9.63
2023-04-21T11:11:36.437Z,9.70
2023-04-21T11:14:02.952Z,9.05
2023-04-21T11:16:29.242Z,10.30
2023-04-21T11:18:56.721Z,10.77
2023-04-21T11:21:24.483Z,10.45
2023-04-21T11:23:51.745Z,9.00
2023-04-21T11:26:18.113Z,10.13
2023-04-21T11:28:47.189Z,9.50
2023-04-21T11:31:13.524Z,8.50
2023-04-21T11:33:39.870Z,8.95
2023-04-21T11:36:07.324Z,9.18
2023-04-21T11:38:40.330Z,9.32
2023-04-21T11:41:07.069Z,8.38
2023-04-21T11:43:33.314Z,8.63
2023-04-21T11:46:33.297Z,8.02
2023-04-21T11:49:00.902Z,7.88
2023-04-21T11:51:27.996Z,8.20
2023-04-21T11:53:54.279Z,7.88
2023-04-21T11:56:21.639Z,7.60
2023-04-21T11:58:51.032Z,7.28
2023-04-21T12:01:17.274Z,7.72
2023-04-21T12:03:50.682Z,8.02
2023-04-21T12:06:20.626Z,7.30
2023-04-21T12:08:46.946Z,7.97
2023-04-21T12:11:15.935Z,8.85
2023-04-21T12:13:42.179Z,8.27
2023-04-21T12:16:08.418Z,7.72
2023-04-21T12:18:36.737Z,9.07
2023-04-21T12:21:03.362Z,8.02
2023-04-21T12:23:29.718Z,8.05
2023-04-21T12:25:55.912Z,7.82
2023-04-21T12:28:22.189Z,8.23
2023-04-21T12:30:48.378Z,8.10
2023-04-21T12:33:14.677Z,7.70
2023-04-21T12:35:41.052Z,7.95
2023-04-21T12:38:07.336Z,7.88
2023-04-21T12:40:33.582Z,7.78
2023-04-21T12:42:59.789Z,7.15
2023-04-21T12:45:26.099Z,7.40
2023-04-21T12:47:52.329Z,6.55
2023-04-21T12:50:18.569Z,7.10
2023-04-21T12:52:44.802Z,8.30
2023-04-21T12:55:13.248Z,8.45
2023-04-21T12:57:39.460Z,6.65
2023-04-21T13:00:06.026Z,7.45
2023-04-21T13:02:36.990Z,8.55
2023-04-21T13:05:04.853Z,7.78
2023-04-21T13:07:31.306Z,9.30
2023-04-21T13:09:57.717Z,8.63
2023-04-21T13:12:23.932Z,9.98
2023-04-21T13:14:50.368Z,9.40
2023-04-21T13:17:16.746Z,8.05
2023-04-21T13:19:42.993Z,8.93
2023-04-21T13:22:09.198Z,8.35
2023-04-21T13:24:35.388Z,8.68
2023-04-21T13:27:01.897Z,10.60
2023-04-21T13:29:34.719Z,11.05
2023-04-21T13:32:01.745Z,9.52
2023-04-21T13:34:28.148Z,10.80
2023-04-21T13:36:54.617Z,9.55
2023-04-21T13:39:21.224Z,9.18
2023-04-21T13:41:48.001Z,10.23
2023-04-21T13:44:14.400Z,9.30
2023-04-21T13:46:40.635Z,9.52
2023-04-21T13:49:07.341Z,8.82
2023-04-21T13:51:33.963Z,7.80
2023-04-21T13:54:00.194Z,8.02
2023-04-21T13:56:26.405Z,8.00
2023-04-21T13:58:52.614Z,11.32
2023-04-21T14:01:21.231Z,7.75
2023-04-21T14:03:48.044Z,7.45
2023-04-21T14:06:14.700Z,7.88
2023-04-21T14:08:40.905Z,9.13
2023-04-21T14:11:07.165Z,7.97
2023-04-21T14:13:39.446Z,8.73
2023-04-21T14:16:06.846Z,8.52
2023-04-21T14:18:33.604Z,7.68
2023-04-21T14:20:59.949Z,8.43
2023-04-21T14:23:26.295Z,7.68
2023-04-21T14:25:54.342Z,8.15
2023-04-21T14:28:21.374Z,8.27
2023-04-21T14:30:47.624Z,7.22
2023-04-21T14:33:13.922Z,6.88
2023-04-21T14:35:40.798Z,7.07
2023-04-21T14:38:07.522Z,7.22
2023-04-21T14:40:33.782Z,7.07
2023-04-21T14:43:00.034Z,6.60
2023-04-21T14:45:26.733Z,6.82
2023-04-21T14:47:53.096Z,6.90
2023-04-21T14:50:19.359Z,6.70
2023-04-21T14:52:49.133Z,7.10
2023-04-21T14:55:15.880Z,6.55
2023-04-21T14:57:42.185Z,5.72
2023-04-21T15:00:10.444Z,6.38
2023-04-21T15:02:36.861Z,6.15
2023-04-21T15:05:03.553Z,5.85
2023-04-21T15:07:29.850Z,5.82
2023-04-21T15:09:56.068Z,5.95
2023-04-21T15:12:22.584Z,5.80
2023-04-21T15:14:48.903Z,5.63
2023-04-21T15:17:15.218Z,6.07
2023-04-21T15:19:41.597Z,6.10
2023-04-21T15:22:07.861Z,5.60
2023-04-21T15:24:35.220Z,5.68
2023-04-21T15:27:02.200Z,5.93
2023-04-21T15:29:29.015Z,5.50
2023-04-21T15:31:55.354Z,5.82
2023-04-21T15:34:21.614Z,5.57
2023-04-21T15:36:47.928Z,5.50
2023-04-21T15:39:14.222Z,5.57
2023-04-21T15:41:41.655Z,5.35
2023-04-21T15:44:07.954Z,5.72
2023-04-21T15:46:37.113Z,5.93
2023-04-21T15:49:03.405Z,5.45
2023-04-21T15:51:29.632Z,5.07
2023-04-21T15:53:55.898Z,5.13
2023-04-21T15:56:22.254Z,5.38
2023-04-21T15:58:48.475Z,4.90
2023-04-21T16:01:15.310Z,5.25
2023-04-21T16:03:42.181Z,4.75
2023-04-21T16:06:08.613Z,4.47
2023-04-21T16:08:34.873Z,4.95
2023-04-21T16:11:01.258Z,4.53
2023-04-21T16:13:27.620Z,4.72
2023-04-21T16:15:54.023Z,4.47
2023-04-21T16:18:20.883Z,4.85
2023-04-21T16:20:47.323Z,4.70
2023-04-21T16:23:13.981Z,6.18
2023-04-21T16:25:40.592Z,4.85
2023-04-21T16:28:07.129Z,4.78
2023-04-21T16:30:34.921Z,4.68
2023-04-21T16:33:01.350Z,4.95
2023-04-21T16:35:27.665Z,4.70
2023-04-21T16:37:53.978Z,4.93
2023-04-21T16:40:22.205Z,4.85
2023-04-21T16:42:48.923Z,4.88
2023-04-21T16:45:15.157Z,5.30
2023-04-21T16:47:42.339Z,4.68
2023-04-21T16:50:09.020Z,4.47
2023-04-21T16:52:35.477Z,4.55
2023-04-21T16:55:01.709Z,4.78
2023-04-21T16:57:29.233Z,4.78
2023-04-21T16:59:55.508Z,5.45
2023-04-21T17:02:22.178Z,4.95
2023-04-21T17:04:48.610Z,5.30
2023-04-21T17:07:14.998Z,4.80
2023-04-21T17:09:41.181Z,4.95
2023-04-21T17:12:07.581Z,5.10
2023-04-21T17:14:33.821Z,4.78
2023-04-21T17:17:00.258Z,5.22
2023-04-21T17:19:26.759Z,5.78
2023-04-21T17:21:52.974Z,5.35
2023-04-21T17:24:19.172Z,4.90
2023-04-21T17:26:45.441Z,5.40
2023-04-21T17:29:11.720Z,5.32
2023-04-21T17:31:38.356Z,5.13
2023-04-21T17:34:04.567Z,4.72
2023-04-21T17:36:30.856Z,4.40
2023-04-21T17:38:58.157Z,3.90
2023-04-21T17:41:24.888Z,3.88
2023-04-21T17:43:51.243Z,3.85
2023-04-21T17:46:17.495Z,4.07
2023-04-21T17:48:43.762Z,3.88
2023-04-21T17:51:10.910Z,3.67
2023-04-21T17:53:37.240Z,4.28
2023-04-21T17:56:03.486Z,4.75
2023-04-21T17:58:29.689Z,5.10
2023-04-21T18:00:55.992Z,4.88
2023-04-21T18:03:22.578Z,4.80
2023-04-21T18:05:49.679Z,4.95
2023-04-21T18:08:15.877Z,4.90
2023-04-21T18:10:42.068Z,4.00
2023-04-21T18:13:08.291Z,4.03
2023-04-21T18:15:34.560Z,3.83
2023-04-21T18:18:00.935Z,3.03
2023-04-21T18:20:27.437Z,3.30
2023-04-21T18:22:54.350Z,3.10
2023-04-21T18:25:30.600Z,3.10
2023-04-21T18:28:07.304Z,2.90
2023-04-21T18:30:33.743Z,2.80
2023-04-21T18:33:00.302Z,3.30
2023-04-21T18:35:26.763Z,2.92
2023-04-21T18:37:53.104Z,2.90
2023-04-21T18:40:19.334Z,2.67
2023-04-21T18:42:46.521Z,3.83
2023-04-21T18:45:12.769Z,3.90
2023-04-21T18:47:39.179Z,2.85
2023-04-21T18:50:06.401Z,1.80
2023-04-21T18:52:32.639Z,1.50
2023-04-21T18:54:58.865Z,1.70
2023-04-21T18:57:25.755Z,1.25
2023-04-21T18:59:52.408Z,1.30
2023-04-21T19:02:18.777Z,1.20
2023-04-21T19:04:45.474Z,1.40
2023-04-21T19:07:12.410Z,1.60
2023-04-21T19:09:38.702Z,2.08
2023-04-21T19:12:05.087Z,1.90
2023-04-21T19:14:42.541Z,2.10
2023-04-21T19:17:12.706Z,1.80
2023-04-21T19:19:38.908Z,2.10
2023-04-21T19:22:05.351Z,2.47
2023-04-21T19:24:31.549Z,2.45
2023-04-21T19:27:02.251Z,2.10
2023-04-21T19:29:28.529Z,3.13
2023-04-21T19:31:54.767Z,2.00
2023-04-21T19:34:21.442Z,2.30
2023-04-21T19:36:47.717Z,2.55
2023-04-21T19:39:14.189Z,2.72
2023-04-21T19:41:40.472Z,2.58
2023-04-21T19:44:06.663Z,2.38
2023-04-21T19:46:32.989Z,2.63
2023-04-21T19:48:59.412Z,2.80
2023-04-21T19:51:25.764Z,2.70
2023-04-21T19:53:59.626Z,2.70
2023-04-21T19:56:36.436Z,2.58
2023-04-21T19:59:04.803Z,3.03
2023-04-21T20:01:32.177Z,2.60
2023-04-21T20:03:59.637Z,2.70
2023-04-21T20:06:27.026Z,2.72
2023-04-21T20:08:53.277Z,2.80
2023-04-21T20:11:19.470Z,3.08
2023-04-21T20:13:45.751Z,3.35
2023-04-21T20:16:12.089Z,3.08
2023-04-21T20:18:39.748Z,3.50
2023-04-21T20:21:06.283Z,3.40
2023-04-21T20:23:32.501Z,2.95
2023-04-21T20:25:58.785Z,2.95
2023-04-21T20:28:25.210Z,3.20
2023-04-21T20:30:51.439Z,2.90
2023-04-21T20:33:17.905Z,3.53
2023-04-21T20:35:45.879Z,3.30
2023-04-21T20:38:12.191Z,3.08
2023-04-21T20:40:39.308Z,3.72
2023-04-21T20:43:06.254Z,3.53
2023-04-21T20:45:32.953Z,3.83
2023-04-21T20:47:59.162Z,3.90
2023-04-21T20:50:25.935Z,3.35
2023-04-21T20:52:52.196Z,3.60
2023-04-21T20:55:18.494Z,3.55
2023-04-21T20:57:44.695Z,3.92
2023-04-21T21:00:12.123Z,4.05
2023-04-21T21:02:38.500Z,4.05
2023-04-21T21:05:04.913Z,4.22
2023-04-21T21:07:31.368Z,3.40
2023-04-21T21:09:57.648Z,3.97
2023-04-21T21:12:24.238Z,3.50
2023-04-21T21:14:50.471Z,3.22
2023-04-21T21:17:17.075Z,3.75
2023-04-21T21:19:43.467Z,4.05
2023-04-21T21:22:09.735Z,3.65
2023-04-21T21:24:35.936Z,3.92
2023-04-21T21:27:02.150Z,4.40
2023-04-21T21:29:31.552Z,4.47
2023-04-21T21:31:57.816Z,3.97
2023-04-21T21:34:24.050Z,4.22
2023-04-21T21:36:50.230Z,3.97
2023-04-21T21:39:16.428Z,3.78
2023-04-21T21:41:42.624Z,3.90
2023-04-21T21:44:08.892Z,4.05
2023-04-21T21:46:35.212Z,3.65
2023-04-21T21:49:01.444Z,4.32
2023-04-21T21:51:28.769Z,3.65
2023-04-21T21:53:54.986Z,4.07
2023-04-21T21:56:21.892Z,4.15
2023-04-21T21:58:48.145Z,4.63
2023-04-21T22:01:17.764Z,4.22
2023-04-21T22:03:44.455Z,4.50
2023-04-21T22:06:12.322Z,4.45
2023-04-21T22:08:39.395Z,4.90
2023-04-21T22:11:05.786Z,4.20
2023-04-21T22:13:32.120Z,5.43
2023-04-21T22:15:58.346Z,5.35
2023-04-21T22:18:24.607Z,4.85
2023-04-21T22:20:50.799Z,5.40
2023-04-21T22:23:19.579Z,5.30
2023-04-21T22:25:45.756Z,5.15
2023-04-21T22:28:11.959Z,4.80
2023-04-21T22:30:38.196Z,5.47
2023-04-21T22:33:04.453Z,4.60
2023-04-21T22:35:30.967Z,5.10
2023-04-21T22:37:57.226Z,5.22
2023-04-21T22:40:23.478Z,4.93
2023-04-21T22:42:49.683Z,4.97
2023-04-21T22:45:15.906Z,5.05
2023-04-21T22:47:42.216Z,5.47
2023-04-21T22:50:09.404Z,5.47
2023-04-21T22:52:35.815Z,5.63
2023-04-21T22:55:03.685Z,5.55
2023-04-21T22:57:29.912Z,5.75
2023-04-21T22:59:56.106Z,6.32
2023-04-21T23:02:22.848Z,6.40
2023-04-21T23:04:49.159Z,6.95
2023-04-21T23:07:15.394Z,6.43
2023-04-21T23:09:41.669Z,6.18
2023-04-21T23:12:08.130Z,6.97
2023-04-21T23:14:34.371Z,6.90
2023-04-21T23:17:00.594Z,6.85
2023-04-21T23:19:26.897Z,6.65
2023-04-21T23:21:53.110Z,6.68
2023-04-21T23:24:19.341Z,5.47
2023-04-21T23:26:45.605Z,5.95
2023-04-21T23:29:11.860Z,5.93
2023-04-21T23:31:38.251Z,5.32
2023-04-21T23:34:04.507Z,5.65
2023-04-21T23:36:31.756Z,5.95
2023-04-21T23:38:58.033Z,4.93
2023-04-21T23:41:24.330Z,5.90
2023-04-21T23:43:50.532Z,5.60
2023-04-21T23:46:16.865Z,5.78
2023-04-21T23:48:43.271Z,6.13
2023-04-21T23:51:09.518Z,5.85
2023-04-21T23:53:36.035Z,6.07
2023-04-21T23:56:02.270Z,5.00
2023-04-21T23:58:28.576Z,5.63
